createdAt,value
2019-03-22T00:01:23.486Z,32.67
2019-03-22T00:03:52.551Z,33.93
2019-03-22T00:06:21.409Z,31.10
2019-03-22T00:08:49.996Z,32.93
2019-03-22T00:11:20.040Z,32.73
2019-03-22T00:13:48.702Z,32.13
2019-03-22T00:16:17.631Z,31.50
2019-03-22T00:18:46.067Z,32.87
2019-03-22T00:21:15.687Z,33.67
2019-03-22T00:23:44.637Z,34.23
2019-03-22T00:26:14.178Z,34.13
2019-03-22T00:28:42.371Z,35.40
2019-03-22T00:31:13.332Z,34.50
2019-03-22T00:33:41.596Z,34.97
2019-03-22T00:36:10.610Z,33.90
2019-03-22T00:38:39.785Z,40.37
2019-03-22T00:41:08.555Z,34.73
2019-03-22T00:43:37.137Z,33.63
2019-03-22T00:46:05.449Z,31.60
2019-03-22T00:48:34.325Z,32.73
2019-03-22T00:51:02.565Z,33.00
2019-03-22T00:53:31.234Z,31.47
2019-03-22T00:55:59.994Z,32.40
2019-03-22T00:58:28.202Z,30.73
2019-03-22T01:00:56.633Z,31.43
2019-03-22T01:03:25.174Z,31.80
2019-03-22T01:05:54.092Z,33.73
2019-03-22T01:08:22.630Z,34.13
2019-03-22T01:10:51.137Z,29.97
2019-03-22T01:13:20.367Z,32.50
2019-03-22T01:15:49.973Z,30.80
2019-03-22T01:18:19.101Z,32.40
2019-03-22T01:20:48.035Z,28.97
2019-03-22T01:23:16.891Z,33.00
2019-03-22T01:25:45.359Z,33.57
2019-03-22T01:28:13.415Z,32.87
2019-03-22T01:30:42.901Z,36.10
2019-03-22T01:33:11.468Z,33.80
2019-03-22T01:35:40.033Z,35.40
2019-03-22T01:38:08.213Z,38.80
2019-03-22T01:40:36.819Z,37.87
2019-03-22T01:43:04.931Z,36.77
2019-03-22T01:45:33.709Z,38.40
2019-03-22T01:48:01.986Z,36.53
2019-03-22T01:50:31.040Z,37.83
2019-03-22T01:52:59.311Z,34.43
2019-03-22T01:55:28.127Z,36.00
2019-03-22T01:57:56.808Z,34.47
2019-03-22T02:00:25.631Z,35.37
2019-03-22T02:02:54.871Z,33.40
2019-03-22T02:05:22.973Z,32.20
2019-03-22T02:07:51.269Z,31.80
2019-03-22T02:10:19.482Z,31.83
2019-03-22T02:12:48.487Z,31.67
2019-03-22T02:15:16.970Z,33.50
2019-03-22T02:17:45.815Z,33.90
2019-03-22T02:20:14.657Z,33.00
2019-03-22T02:22:42.852Z,32.30
2019-03-22T02:25:11.539Z,33.20
2019-03-22T02:27:40.295Z,33.83
2019-03-22T02:30:09.405Z,32.80
2019-03-22T02:32:37.447Z,36.13
2019-03-22T02:35:07.162Z,34.20
2019-03-22T02:37:35.871Z,35.30
2019-03-22T02:40:05.967Z,34.20
2019-03-22T02:42:34.823Z,32.50
2019-03-22T02:45:04.305Z,32.27
2019-03-22T02:47:34.113Z,33.57
2019-03-22T02:50:17.162Z,33.70
2019-03-22T02:52:32.990Z,33.40
2019-03-22T02:55:02.227Z,34.37
2019-03-22T02:57:33.405Z,34.80
2019-03-22T03:00:01.984Z,33.27
2019-03-22T03:02:31.642Z,31.77
2019-03-22T03:05:00.235Z,32.13
2019-03-22T03:07:28.786Z,34.30
2019-03-22T03:09:57.392Z,33.93
2019-03-22T03:12:25.923Z,33.83
2019-03-22T03:14:53.896Z,32.90
2019-03-22T03:17:22.191Z,30.87
2019-03-22T03:19:50.509Z,27.60
2019-03-22T03:22:19.114Z,27.47
2019-03-22T03:24:47.418Z,27.47
2019-03-22T03:27:15.622Z,25.90
2019-03-22T03:29:43.995Z,24.30
2019-03-22T03:32:12.588Z,22.23
2019-03-22T03:34:40.843Z,22.60
2019-03-22T03:37:08.854Z,23.13
2019-03-22T03:39:37.805Z,22.40
2019-03-22T03:42:06.269Z,22.50
2019-03-22T03:44:35.098Z,23.20
2019-03-22T03:47:03.529Z,24.57
2019-03-22T03:49:31.941Z,23.77
2019-03-22T03:52:00.431Z,24.07
2019-03-22T03:54:29.496Z,22.83
2019-03-22T03:56:58.067Z,23.37
2019-03-22T03:59:28.116Z,24.00
2019-03-22T04:01:56.318Z,25.13
2019-03-22T04:04:24.443Z,25.43
2019-03-22T04:06:53.344Z,23.93
2019-03-22T04:09:21.408Z,24.27
2019-03-22T04:11:50.006Z,25.53
2019-03-22T04:14:18.589Z,24.40
2019-03-22T04:16:47.073Z,26.00
2019-03-22T04:19:17.013Z,24.30
2019-03-22T04:21:52.929Z,25.40
2019-03-22T04:24:21.300Z,26.77
2019-03-22T04:26:49.899Z,28.07
2019-03-22T04:29:18.288Z,28.70
2019-03-22T04:31:47.388Z,26.73
2019-03-22T04:34:16.370Z,25.83
2019-03-22T04:36:45.673Z,26.20
2019-03-22T04:39:14.507Z,25.80
2019-03-22T04:41:43.334Z,24.17
2019-03-22T04:44:12.990Z,23.27
2019-03-22T04:46:44.246Z,24.00
2019-03-22T04:49:16.540Z,25.47
2019-03-22T04:51:45.757Z,24.17
2019-03-22T04:54:18.131Z,24.80
2019-03-22T04:56:47.860Z,24.10
2019-03-22T04:59:19.233Z,24.87
2019-03-22T05:01:50.756Z,25.07
2019-03-22T05:04:21.129Z,24.60
2019-03-22T05:06:53.908Z,23.03
2019-03-22T05:09:26.531Z,20.93
2019-03-22T05:11:58.304Z,23.60
2019-03-22T05:14:33.040Z,23.90
2019-03-22T05:17:06.712Z,24.00
2019-03-22T05:19:39.582Z,23.20
2019-03-22T05:22:14.749Z,22.80
2019-03-22T05:24:48.284Z,25.03
2019-03-22T05:27:24.159Z,25.50
2019-03-22T05:29:57.157Z,24.47
2019-03-22T05:32:34.894Z,23.87
2019-03-22T05:35:08.154Z,23.80
2019-03-22T05:37:44.603Z,22.03
2019-03-22T05:40:32.578Z,23.17
2019-03-22T05:43:07.688Z,23.10
2019-03-22T05:45:36.307Z,24.83
2019-03-22T05:48:06.330Z,23.37
2019-03-22T05:50:35.357Z,23.23
2019-03-22T05:53:06.802Z,24.10
2019-03-22T05:55:35.787Z,30.77
2019-03-22T05:58:07.422Z,27.00
2019-03-22T06:00:37.432Z,23.70
2019-03-22T06:03:07.978Z,21.13
2019-03-22T06:05:36.960Z,21.40
2019-03-22T06:08:08.747Z,18.97
2019-03-22T06:10:37.935Z,19.73
2019-03-22T06:13:08.044Z,19.30
2019-03-22T06:15:37.750Z,22.20
2019-03-22T06:18:06.541Z,17.70
2019-03-22T06:20:35.438Z,19.27
2019-03-22T06:23:04.859Z,17.50
2019-03-22T06:25:38.922Z,16.67
2019-03-22T06:28:08.512Z,16.17
2019-03-22T06:30:37.371Z,17.20
2019-03-22T06:33:06.098Z,17.30
2019-03-22T06:35:35.238Z,18.10
2019-03-22T06:38:04.115Z,15.73
2019-03-22T06:40:32.694Z,15.73
2019-03-22T06:43:01.589Z,18.23
2019-03-22T06:45:30.308Z,16.80
2019-03-22T06:47:58.898Z,15.67
2019-03-22T06:50:27.645Z,13.80
2019-03-22T06:52:56.425Z,15.97
2019-03-22T06:55:25.220Z,14.43
2019-03-22T06:57:53.883Z,13.77
2019-03-22T07:00:22.414Z,15.27
2019-03-22T07:02:50.567Z,14.10
2019-03-22T07:05:19.091Z,14.03
2019-03-22T07:07:48.086Z,13.50
2019-03-22T07:10:17.100Z,12.43
2019-03-22T07:12:45.774Z,12.60
2019-03-22T07:15:14.605Z,12.90
2019-03-22T07:17:43.608Z,13.53
2019-03-22T07:20:12.877Z,13.07
2019-03-22T07:22:42.793Z,12.40
2019-03-22T07:25:12.993Z,13.40
2019-03-22T07:27:42.544Z,12.13
2019-03-22T07:30:18.716Z,12.73
2019-03-22T07:32:43.112Z,11.67
2019-03-22T07:35:11.768Z,11.67
2019-03-22T07:37:40.228Z,11.37
2019-03-22T07:40:09.209Z,11.50
2019-03-22T07:42:38.064Z,10.90
2019-03-22T07:45:08.382Z,11.77
2019-03-22T07:47:37.370Z,10.83
2019-03-22T07:50:06.312Z,12.27
2019-03-22T07:52:35.648Z,10.37
2019-03-22T07:55:05.423Z,12.20
2019-03-22T07:57:34.072Z,11.03
2019-03-22T08:00:02.338Z,9.10
2019-03-22T08:02:30.918Z,8.90
2019-03-22T08:04:59.643Z,9.50
2019-03-22T08:07:28.961Z,9.23
2019-03-22T08:09:58.018Z,9.30
2019-03-22T08:12:27.275Z,8.80
2019-03-22T08:14:56.745Z,9.90
2019-03-22T08:17:25.341Z,8.83
2019-03-22T08:19:53.953Z,9.60
2019-03-22T08:22:22.437Z,9.23
2019-03-22T08:24:51.745Z,9.33
2019-03-22T08:27:21.073Z,8.50
2019-03-22T08:29:49.797Z,9.20
2019-03-22T08:32:18.329Z,10.13
2019-03-22T08:34:47.745Z,8.87
2019-03-22T08:37:16.702Z,8.93
2019-03-22T08:39:45.509Z,8.53
2019-03-22T08:42:15.014Z,8.30
2019-03-22T08:44:43.628Z,10.17
2019-03-22T08:47:12.385Z,8.60
2019-03-22T08:49:41.248Z,8.57
2019-03-22T08:52:10.712Z,9.60
2019-03-22T08:54:39.629Z,7.97
2019-03-22T08:57:09.396Z,8.10
2019-03-22T08:59:38.249Z,7.60
2019-03-22T09:02:08.503Z,7.63
2019-03-22T09:04:36.700Z,7.43
2019-03-22T09:07:06.969Z,8.10
2019-03-22T09:09:41.370Z,8.27
2019-03-22T09:12:09.656Z,7.10
2019-03-22T09:14:38.355Z,8.17
2019-03-22T09:17:07.545Z,8.00
2019-03-22T09:19:35.780Z,7.00
2019-03-22T09:22:14.894Z,7.60
2019-03-22T09:24:47.880Z,7.13
2019-03-22T09:27:16.684Z,7.10
2019-03-22T09:29:47.384Z,7.33
2019-03-22T09:32:15.586Z,7.50
2019-03-22T09:34:45.056Z,7.20
2019-03-22T09:37:14.572Z,5.90
2019-03-22T09:39:43.818Z,7.07
2019-03-22T09:42:12.654Z,6.30
2019-03-22T09:44:45.268Z,5.80
2019-03-22T09:47:11.516Z,5.83
2019-03-22T09:49:39.913Z,5.53
2019-03-22T09:52:09.049Z,6.13
2019-03-22T09:54:37.704Z,4.47
2019-03-22T09:57:06.082Z,5.70
2019-03-22T09:59:34.591Z,4.83
2019-03-22T10:02:03.370Z,4.40
2019-03-22T10:04:32.129Z,5.20
2019-03-22T10:07:02.308Z,5.20
2019-03-22T10:09:30.749Z,4.30
2019-03-22T10:11:58.919Z,4.47
2019-03-22T10:14:27.955Z,4.23
2019-03-22T10:16:56.293Z,4.27
2019-03-22T10:19:30.815Z,4.50
2019-03-22T10:21:59.520Z,4.00
2019-03-22T10:24:27.806Z,4.47
2019-03-22T10:26:56.110Z,3.87
2019-03-22T10:29:25.608Z,4.23
2019-03-22T10:31:54.047Z,4.13
2019-03-22T10:34:28.676Z,4.40
2019-03-22T10:36:57.340Z,3.83
2019-03-22T10:39:26.355Z,4.90
2019-03-22T10:41:54.760Z,4.37
2019-03-22T10:44:23.418Z,4.50
2019-03-22T10:46:51.705Z,3.83
2019-03-22T10:49:20.708Z,5.07
2019-03-22T10:51:56.878Z,4.00
2019-03-22T10:54:19.576Z,4.00
2019-03-22T10:56:51.588Z,3.67
2019-03-22T10:59:24.194Z,4.20
2019-03-22T11:02:03.288Z,3.80
2019-03-22T11:04:23.268Z,3.50
2019-03-22T11:06:52.243Z,4.90
2019-03-22T11:09:20.300Z,3.63
2019-03-22T11:11:48.835Z,3.80
2019-03-22T11:14:18.990Z,4.90
2019-03-22T11:16:47.327Z,4.57
2019-03-22T11:19:15.734Z,3.80
2019-03-22T11:21:44.327Z,4.83
2019-03-22T11:24:12.566Z,5.63
2019-03-22T11:26:40.744Z,4.93
2019-03-22T11:29:08.894Z,5.20
2019-03-22T11:31:40.160Z,5.13
2019-03-22T11:34:07.539Z,5.43
2019-03-22T11:36:35.967Z,5.60
2019-03-22T11:39:15.438Z,5.80
2019-03-22T11:41:39.878Z,5.63
2019-03-22T11:44:08.857Z,5.30
2019-03-22T11:46:37.252Z,5.47
2019-03-22T11:49:05.816Z,5.20
2019-03-22T11:51:34.259Z,5.57
2019-03-22T11:54:02.441Z,4.60
2019-03-22T11:56:30.870Z,4.93
2019-03-22T11:59:00.192Z,4.33
2019-03-22T12:01:28.413Z,4.60
2019-03-22T12:03:56.896Z,4.33
2019-03-22T12:06:27.292Z,6.03
2019-03-22T12:08:55.817Z,5.83
2019-03-22T12:11:23.970Z,4.50
2019-03-22T12:13:52.361Z,4.63
2019-03-22T12:16:20.662Z,5.00
2019-03-22T12:18:50.454Z,5.67
2019-03-22T12:21:18.698Z,5.77
2019-03-22T12:23:46.847Z,5.43
2019-03-22T12:26:15.808Z,4.80
2019-03-22T12:28:44.225Z,5.33
2019-03-22T12:31:13.377Z,6.13
2019-03-22T12:33:42.575Z,5.33
2019-03-22T12:36:11.036Z,5.33
2019-03-22T12:38:39.497Z,5.03
2019-03-22T12:41:08.414Z,5.33
2019-03-22T12:43:36.916Z,5.00
2019-03-22T12:46:05.391Z,4.80
2019-03-22T12:48:34.173Z,5.27
2019-03-22T12:51:02.303Z,7.93
2019-03-22T12:53:30.715Z,16.90
2019-03-22T12:55:58.810Z,14.10
2019-03-22T12:58:27.013Z,10.90
2019-03-22T13:00:55.030Z,11.47
2019-03-22T13:03:24.441Z,25.40
2019-03-22T13:05:52.746Z,26.67
2019-03-22T13:08:21.592Z,18.63
2019-03-22T13:10:50.137Z,14.80
2019-03-22T13:13:18.785Z,10.50
2019-03-22T13:15:47.137Z,8.70
2019-03-22T13:18:15.925Z,6.53
2019-03-22T13:20:44.470Z,6.33
2019-03-22T13:23:12.820Z,4.97
2019-03-22T13:25:41.709Z,4.57
2019-03-22T13:28:09.734Z,3.90
2019-03-22T13:30:38.145Z,3.83
2019-03-22T13:33:06.349Z,3.53
2019-03-22T13:35:35.070Z,3.63
2019-03-22T13:38:03.796Z,3.63
2019-03-22T13:40:32.367Z,3.37
2019-03-22T13:43:01.015Z,3.20
2019-03-22T13:45:35.981Z,3.40
2019-03-22T13:48:04.639Z,3.03
2019-03-22T13:50:34.328Z,3.10
2019-03-22T13:53:02.891Z,2.90
2019-03-22T13:55:31.337Z,3.03
2019-03-22T13:58:01.004Z,3.50
2019-03-22T14:00:36.064Z,3.13
2019-03-22T14:03:06.037Z,3.90
2019-03-22T14:05:43.837Z,3.20
2019-03-22T14:08:12.505Z,3.50
2019-03-22T14:10:42.754Z,3.10
2019-03-22T14:13:12.571Z,3.40
2019-03-22T14:15:41.123Z,3.20
2019-03-22T14:18:09.644Z,3.77
2019-03-22T14:20:46.123Z,2.90
2019-03-22T14:23:18.052Z,3.47
2019-03-22T14:25:52.964Z,2.97
2019-03-22T14:28:25.585Z,3.17
2019-03-22T14:30:58.526Z,2.83
2019-03-22T14:33:28.246Z,3.73
2019-03-22T14:36:02.242Z,2.77
2019-03-22T14:38:34.532Z,2.10
2019-03-22T14:41:08.333Z,2.70
2019-03-22T14:43:41.306Z,2.67
2019-03-22T14:46:20.710Z,3.03
2019-03-22T14:48:50.038Z,2.50
2019-03-22T14:51:27.121Z,2.70
2019-03-22T14:53:56.258Z,3.10
2019-03-22T14:56:35.319Z,2.73
2019-03-22T14:59:05.166Z,3.00
2019-03-22T15:01:34.974Z,3.00
2019-03-22T15:04:03.133Z,5.37
2019-03-22T15:06:34.579Z,14.50
2019-03-22T15:09:06.384Z,23.17
2019-03-22T15:11:46.113Z,16.20
2019-03-22T15:14:33.165Z,11.53
2019-03-22T15:17:38.510Z,8.10
2019-03-22T15:20:40.362Z,5.80
2019-03-22T15:23:35.076Z,5.30
2019-03-22T15:26:33.515Z,3.50
2019-03-22T15:29:21.030Z,4.00
2019-03-22T15:32:16.218Z,4.10
2019-03-22T15:35:05.931Z,3.13
2019-03-22T15:37:57.707Z,3.03
2019-03-22T15:40:28.057Z,3.63
2019-03-22T15:42:58.854Z,3.10
2019-03-22T15:45:30.331Z,2.70
2019-03-22T15:48:04.464Z,3.07
2019-03-22T15:50:40.925Z,2.67
2019-03-22T15:53:12.806Z,2.90
2019-03-22T15:55:41.634Z,2.93
2019-03-22T15:58:13.041Z,2.60
2019-03-22T16:00:41.534Z,2.47
2019-03-22T16:03:10.017Z,2.67
2019-03-22T16:05:41.471Z,3.20
2019-03-22T16:08:12.222Z,2.50
2019-03-22T16:10:44.458Z,2.70
2019-03-22T16:13:13.328Z,2.70
2019-03-22T16:15:46.712Z,2.80
2019-03-22T16:18:16.371Z,4.87
2019-03-22T16:20:44.505Z,12.70
2019-03-22T16:23:13.265Z,13.00
2019-03-22T16:25:41.825Z,8.73
2019-03-22T16:28:10.301Z,6.50
2019-03-22T16:30:47.185Z,5.47
2019-03-22T16:33:15.522Z,3.97
2019-03-22T16:35:44.447Z,4.93
2019-03-22T16:38:13.846Z,4.13
2019-03-22T16:40:43.006Z,3.73
2019-03-22T16:43:11.511Z,3.43
2019-03-22T16:45:43.660Z,3.00
2019-03-22T16:48:17.083Z,3.80
2019-03-22T16:50:45.970Z,3.20
2019-03-22T16:53:14.753Z,3.23
2019-03-22T16:55:43.470Z,3.20
2019-03-22T16:58:15.030Z,3.30
2019-03-22T17:00:49.911Z,4.53
2019-03-22T17:03:19.173Z,3.57
2019-03-22T17:05:47.334Z,3.83
2019-03-22T17:08:16.312Z,3.67
2019-03-22T17:10:49.276Z,4.00
2019-03-22T17:13:18.975Z,4.27
2019-03-22T17:15:55.319Z,3.83
2019-03-22T17:18:26.371Z,3.57
2019-03-22T17:20:57.364Z,3.13
2019-03-22T17:23:25.835Z,3.27
2019-03-22T17:25:54.086Z,3.80
2019-03-22T17:28:23.315Z,3.70
2019-03-22T17:30:52.482Z,3.43
2019-03-22T17:33:20.809Z,4.30
2019-03-22T17:35:49.457Z,3.70
2019-03-22T17:38:18.160Z,4.57
2019-03-22T17:40:51.913Z,3.60
2019-03-22T17:43:20.578Z,4.00
2019-03-22T17:45:50.250Z,4.40
2019-03-22T17:48:20.702Z,5.10
2019-03-22T17:51:02.124Z,4.57
2019-03-22T17:53:33.890Z,5.00
2019-03-22T17:56:12.620Z,5.30
2019-03-22T17:58:42.783Z,7.13
2019-03-22T18:01:16.795Z,7.10
2019-03-22T18:03:45.573Z,8.60
2019-03-22T18:06:29.781Z,9.77
2019-03-22T18:08:59.235Z,12.03
2019-03-22T18:11:43.880Z,10.27
2019-03-22T18:14:19.833Z,10.20
2019-03-22T18:16:50.773Z,9.20
2019-03-22T18:19:21.202Z,9.40
2019-03-22T18:21:50.175Z,8.40
2019-03-22T18:24:19.059Z,8.03
2019-03-22T18:26:47.377Z,9.03
2019-03-22T18:29:16.403Z,7.53
2019-03-22T18:31:44.861Z,7.33
2019-03-22T18:34:13.543Z,6.70
2019-03-22T18:36:41.743Z,6.20
2019-03-22T18:39:10.296Z,5.70
2019-03-22T18:41:38.844Z,6.10
2019-03-22T18:44:07.293Z,5.57
2019-03-22T18:46:35.876Z,5.30
2019-03-22T18:49:05.826Z,4.50
2019-03-22T18:51:33.979Z,5.60
2019-03-22T18:54:02.312Z,4.93
2019-03-22T18:56:30.882Z,4.30
2019-03-22T18:58:59.115Z,5.53
2019-03-22T19:01:27.696Z,4.90
2019-03-22T19:03:56.063Z,4.77
2019-03-22T19:06:24.120Z,4.40
2019-03-22T19:08:52.284Z,4.97
2019-03-22T19:11:21.094Z,4.10
2019-03-22T19:13:49.694Z,4.10
2019-03-22T19:16:18.125Z,4.30
2019-03-22T19:18:46.737Z,4.60
2019-03-22T19:21:15.145Z,5.80
2019-03-22T19:23:43.883Z,6.17
2019-03-22T19:26:12.586Z,5.30
2019-03-22T19:28:41.840Z,4.87
2019-03-22T19:31:11.076Z,5.53
2019-03-22T19:33:40.166Z,4.23
2019-03-22T19:36:08.778Z,4.27
2019-03-22T19:38:38.711Z,4.73
2019-03-22T19:41:08.201Z,4.60
2019-03-22T19:43:38.119Z,4.30
2019-03-22T19:46:10.076Z,4.43
2019-03-22T19:48:39.560Z,4.20
2019-03-22T19:51:08.890Z,4.27
2019-03-22T19:53:37.553Z,5.60
2019-03-22T19:56:07.913Z,5.27
2019-03-22T19:58:36.188Z,5.60
2019-03-22T20:01:05.377Z,4.23
2019-03-22T20:03:34.936Z,5.00
2019-03-22T20:06:03.823Z,5.47
2019-03-22T20:08:32.707Z,6.17
2019-03-22T20:11:01.993Z,7.80
2019-03-22T20:13:30.861Z,5.93
2019-03-22T20:16:00.548Z,5.23
2019-03-22T20:18:30.228Z,4.87
2019-03-22T20:20:59.455Z,5.07
2019-03-22T20:23:28.281Z,4.73
2019-03-22T20:25:57.146Z,5.67
2019-03-22T20:28:25.370Z,5.33
2019-03-22T20:30:54.502Z,4.17
2019-03-22T20:33:22.741Z,4.80
2019-03-22T20:35:51.051Z,4.97
2019-03-22T20:38:19.912Z,5.10
2019-03-22T20:40:48.460Z,5.20
2019-03-22T20:43:17.530Z,4.70
2019-03-22T20:45:47.040Z,5.27
2019-03-22T20:48:16.551Z,5.70
2019-03-22T20:50:45.209Z,5.53
2019-03-22T20:53:14.137Z,7.13
2019-03-22T20:55:42.950Z,5.50
2019-03-22T20:58:11.739Z,5.17
2019-03-22T21:00:41.406Z,5.60
2019-03-22T21:03:09.802Z,5.63
2019-03-22T21:05:38.922Z,6.03
2019-03-22T21:08:07.691Z,6.57
2019-03-22T21:10:36.662Z,6.03
2019-03-22T21:13:05.482Z,7.50
2019-03-22T21:15:33.888Z,6.70
2019-03-22T21:18:04.514Z,7.57
2019-03-22T21:20:32.990Z,6.97
2019-03-22T21:23:01.267Z,6.37
2019-03-22T21:25:29.964Z,7.60
2019-03-22T21:27:59.185Z,6.80
2019-03-22T21:30:27.712Z,6.93
2019-03-22T21:32:56.163Z,7.17
2019-03-22T21:35:24.556Z,7.20
2019-03-22T21:37:53.640Z,6.87
2019-03-22T21:40:21.969Z,7.03
2019-03-22T21:42:51.425Z,7.37
2019-03-22T21:45:19.984Z,6.50
2019-03-22T21:47:53.153Z,7.17
2019-03-22T21:50:21.480Z,8.50
2019-03-22T21:52:50.060Z,7.67
2019-03-22T21:55:18.564Z,8.23
2019-03-22T21:57:47.108Z,7.20
2019-03-22T22:00:17.467Z,8.00
2019-03-22T22:02:48.549Z,7.73
2019-03-22T22:05:16.991Z,7.83
2019-03-22T22:07:46.070Z,8.57
2019-03-22T22:10:14.152Z,7.03
2019-03-22T22:12:42.660Z,7.90
2019-03-22T22:15:10.950Z,7.97
2019-03-22T22:17:40.041Z,7.70
2019-03-22T22:20:08.578Z,8.50
2019-03-22T22:22:37.190Z,7.77
2019-03-22T22:25:05.773Z,8.57
2019-03-22T22:27:34.497Z,9.33
2019-03-22T22:30:02.894Z,9.00
2019-03-22T22:32:30.958Z,9.20
2019-03-22T22:34:59.029Z,11.50
2019-03-22T22:37:27.155Z,10.43
2019-03-22T22:39:55.292Z,13.33
2019-03-22T22:42:23.526Z,10.50
2019-03-22T22:44:51.964Z,12.90
2019-03-22T22:47:22.718Z,13.40
2019-03-22T22:49:50.980Z,14.70
2019-03-22T22:52:18.991Z,17.63
2019-03-22T22:54:47.234Z,20.77
2019-03-22T22:57:15.620Z,21.97
2019-03-22T22:59:44.079Z,22.53
2019-03-22T23:02:12.374Z,23.30
2019-03-22T23:04:40.760Z,25.03
2019-03-22T23:07:09.597Z,25.90
2019-03-22T23:09:37.542Z,28.77
2019-03-22T23:12:05.885Z,26.17
2019-03-22T23:14:34.785Z,25.50
2019-03-22T23:17:02.966Z,26.77
2019-03-22T23:19:31.592Z,28.40
2019-03-22T23:22:00.528Z,28.63
2019-03-22T23:24:28.602Z,26.90
2019-03-22T23:26:57.449Z,24.53
2019-03-22T23:29:25.687Z,27.93
2019-03-22T23:31:54.157Z,27.10
2019-03-22T23:34:22.705Z,25.60
2019-03-22T23:36:51.338Z,25.50
2019-03-22T23:39:19.413Z,26.80
2019-03-22T23:41:47.741Z,24.80
2019-03-22T23:44:16.318Z,25.07
2019-03-22T23:46:44.921Z,25.43
2019-03-22T23:49:13.715Z,27.97
2019-03-22T23:51:42.003Z,25.33
2019-03-22T23:54:10.160Z,25.73
2019-03-22T23:56:38.600Z,25.37
2019-03-22T23:59:06.648Z,25.70
